createdAt,value
2022-11-19T00:01:42.805Z,20.2
2022-11-19T00:06:50.699Z,20.2
2022-11-19T00:11:58.660Z,20.2
2022-11-19T00:17:06.655Z,20.2
2022-11-19T00:22:14.588Z,20.2
2022-11-19T00:27:22.533Z,20.2
2022-11-19T00:32:30.507Z,20.2
2022-11-19T00:37:38.454Z,20.2
2022-11-19T00:42:46.404Z,20.2
2022-11-19T00:47:54.396Z,20.2
2022-11-19T00:53:02.341Z,20.2
2022-11-19T00:58:10.283Z,20.2
2022-11-19T01:03:18.290Z,20.2
2022-11-19T01:08:26.253Z,20.2
2022-11-19T01:13:34.173Z,20.2
2022-11-19T01:18:42.163Z,20.2
2022-11-19T01:23:50.091Z,20.2
2022-11-19T01:28:58.052Z,20.3
2022-11-19T01:34:06.043Z,20.3
2022-11-19T01:39:13.957Z,20.3
2022-11-19T01:44:21.926Z,20.2
2022-11-19T01:49:29.911Z,20.2
2022-11-19T01:54:37.861Z,20.2
2022-11-19T01:59:45.799Z,20.2
2022-11-19T02:04:53.811Z,20.1
2022-11-19T02:10:01.715Z,20.2
2022-11-19T02:15:09.701Z,20.2
2022-11-19T02:20:17.667Z,20.2
2022-11-19T02:25:25.605Z,20.2
2022-11-19T02:30:33.554Z,20.2
2022-11-19T02:35:41.526Z,20.2
2022-11-19T02:40:49.474Z,20.2
2022-11-19T02:45:57.442Z,20.2
2022-11-19T02:51:05.424Z,20.1
2022-11-19T02:56:13.358Z,20.1
2022-11-19T03:01:21.384Z,20.1
2022-11-19T03:06:29.294Z,20.1
2022-11-19T03:11:37.231Z,20.1
2022-11-19T03:16:45.223Z,20.2
2022-11-19T03:21:53.196Z,20.2
2022-11-19T03:27:01.125Z,20.2
2022-11-19T03:32:09.059Z,20.2
2022-11-19T03:37:17.061Z,20.2
2022-11-19T03:42:25.016Z,20.1
2022-11-19T03:47:32.954Z,20.1
2022-11-19T03:52:40.946Z,20.1
2022-11-19T03:57:48.888Z,20.1
2022-11-19T04:02:55.247Z,20.1
2022-11-19T04:08:03.311Z,20.1
2022-11-19T04:13:11.145Z,20.1
2022-11-19T04:18:19.091Z,20.2
2022-11-19T04:23:27.111Z,20.2
2022-11-19T04:28:35.046Z,20.2
2022-11-19T04:33:42.969Z,20.2
2022-11-19T04:38:50.953Z,20.2
2022-11-19T04:43:58.899Z,20.1
2022-11-19T04:49:06.867Z,20.1
2022-11-19T04:54:14.829Z,20.1
2022-11-19T04:59:22.931Z,20.1
2022-11-19T05:04:30.727Z,20.1
2022-11-19T05:09:38.741Z,20.1
2022-11-19T05:14:46.648Z,20.1
2022-11-19T05:19:54.605Z,20.1
2022-11-19T05:25:02.596Z,20.2
2022-11-19T05:30:10.533Z,20.2
2022-11-19T05:35:18.486Z,20.1
2022-11-19T05:40:26.499Z,20.1
2022-11-19T05:45:34.405Z,20.1
2022-11-19T05:50:42.349Z,20.1
2022-11-19T05:55:50.502Z,20.1
2022-11-19T06:00:58.276Z,20.1
2022-11-19T06:06:06.241Z,20.1
2022-11-19T06:11:14.226Z,20.1
2022-11-19T06:16:22.170Z,20.1
2022-11-19T06:21:30.126Z,20.1
2022-11-19T06:26:38.095Z,20.1
2022-11-19T06:31:46.031Z,20.1
2022-11-19T06:36:53.978Z,20.1
2022-11-19T06:42:01.977Z,20
2022-11-19T06:47:09.895Z,20
2022-11-19T06:52:17.871Z,20
2022-11-19T06:57:25.835Z,20.1
2022-11-19T07:02:33.785Z,20.1
2022-11-19T07:07:41.824Z,20.1
2022-11-19T07:12:49.750Z,20.1
2022-11-19T07:17:57.675Z,20.1
2022-11-19T07:23:05.628Z,20.1
2022-11-19T07:28:13.630Z,20.1
2022-11-19T07:33:21.562Z,20.1
2022-11-19T07:38:34.079Z,20.1
2022-11-19T07:43:37.513Z,20
2022-11-19T07:48:45.456Z,20
2022-11-19T07:53:53.395Z,20
2022-11-19T07:59:01.395Z,20
2022-11-19T08:04:09.336Z,20.1
2022-11-19T08:09:17.456Z,20.1
2022-11-19T08:14:25.277Z,20.1
2022-11-19T08:19:33.193Z,20.1
2022-11-19T08:24:41.150Z,20.1
2022-11-19T08:29:49.128Z,20.1
2022-11-19T08:34:57.060Z,20.1
2022-11-19T08:40:05.033Z,20
2022-11-19T08:45:16.822Z,20
2022-11-19T08:50:20.931Z,20
2022-11-19T08:55:28.880Z,20
2022-11-19T09:00:36.933Z,20
2022-11-19T09:05:44.807Z,20
2022-11-19T09:10:52.768Z,20.1
2022-11-19T09:16:00.863Z,20.1
2022-11-19T09:21:08.693Z,20.1
2022-11-19T09:26:16.668Z,20.1
2022-11-19T09:31:24.632Z,20.1
2022-11-19T09:36:32.554Z,20.1
2022-11-19T09:41:40.524Z,20.1
2022-11-19T09:46:48.517Z,20.1
2022-11-19T09:51:56.452Z,20
2022-11-19T09:57:04.742Z,20
2022-11-19T10:02:12.377Z,20
2022-11-19T10:07:20.349Z,20
2022-11-19T10:12:28.286Z,20.1
2022-11-19T10:17:36.250Z,20.1
2022-11-19T10:22:44.211Z,20.1
2022-11-19T10:27:52.150Z,20.1
2022-11-19T10:33:00.154Z,20.1
2022-11-19T10:38:08.087Z,20.1
2022-11-19T10:43:19.467Z,20.1
2022-11-19T10:48:24.038Z,20.1
2022-11-19T10:53:31.984Z,20
2022-11-19T10:58:39.928Z,20
2022-11-19T11:03:47.898Z,20.1
2022-11-19T11:08:55.839Z,20.1
2022-11-19T11:14:03.771Z,20.1
2022-11-19T11:19:12.369Z,20.1
2022-11-19T11:24:19.699Z,20.1
2022-11-19T11:29:27.678Z,20.1
2022-11-19T11:34:35.652Z,20.1
2022-11-19T11:39:43.577Z,20
2022-11-19T11:44:51.540Z,20
2022-11-19T11:49:59.535Z,20
2022-11-19T11:55:07.470Z,20
2022-11-19T12:00:15.421Z,20
2022-11-19T12:05:23.419Z,20
2022-11-19T12:10:31.332Z,20
2022-11-19T12:15:39.319Z,20
2022-11-19T12:20:47.493Z,20.1
2022-11-19T12:25:54.235Z,20.1
2022-11-19T12:31:00.984Z,20
2022-11-19T12:36:07.724Z,20
2022-11-19T12:41:14.452Z,20
2022-11-19T12:51:29.164Z,19.9
2022-11-19T12:56:35.860Z,19.9
2022-11-19T13:01:42.685Z,20
2022-11-19T13:06:49.370Z,20
2022-11-19T13:11:56.079Z,20
2022-11-19T13:17:02.815Z,20
2022-11-19T13:22:09.559Z,20
2022-11-19T13:27:20.165Z,20
2022-11-19T13:32:22.985Z,20
2022-11-19T13:37:29.766Z,20
2022-11-19T13:42:36.462Z,19.9
2022-11-19T13:47:43.195Z,19.9
2022-11-19T13:52:49.943Z,19.9
2022-11-19T13:57:56.666Z,19.9
2022-11-19T14:03:03.397Z,19.9
2022-11-19T14:08:10.149Z,20
2022-11-19T14:13:16.854Z,20
2022-11-19T14:18:23.871Z,20
2022-11-19T14:23:30.358Z,20
2022-11-19T14:28:37.062Z,20
2022-11-19T14:33:43.782Z,19.9
2022-11-19T14:38:50.543Z,19.9
2022-11-19T14:43:57.288Z,19.9
2022-11-19T14:49:04.032Z,19.9
2022-11-19T14:54:10.747Z,19.9
2022-11-19T14:59:17.465Z,19.9
2022-11-19T15:04:24.167Z,19.9
2022-11-19T15:09:30.937Z,19.9
2022-11-19T15:14:39.655Z,19.9
2022-11-19T15:19:44.381Z,20
2022-11-19T15:24:51.157Z,20
2022-11-19T15:29:57.838Z,20
2022-11-19T15:35:10.777Z,20
2022-11-19T15:40:11.337Z,19.9
2022-11-19T15:45:18.043Z,19.9
2022-11-19T15:50:24.782Z,19.9
2022-11-19T15:55:31.525Z,19.9
2022-11-19T16:00:38.244Z,19.9
2022-11-19T16:05:49.969Z,19.9
2022-11-19T16:10:51.742Z,19.9
2022-11-19T16:15:58.438Z,19.9
2022-11-19T16:21:05.177Z,19.9
2022-11-19T16:26:11.919Z,19.9
2022-11-19T16:31:18.621Z,19.9
2022-11-19T16:36:25.377Z,19.9
2022-11-19T16:41:32.135Z,19.9
2022-11-19T16:46:38.835Z,19.9
2022-11-19T16:51:45.570Z,19.8
2022-11-19T16:56:52.340Z,19.8
2022-11-19T17:01:59.125Z,19.8
2022-11-19T17:07:05.835Z,19.8
2022-11-19T17:12:12.507Z,19.8
2022-11-19T17:17:19.215Z,19.8
2022-11-19T17:22:25.955Z,19.9
2022-11-19T17:27:32.724Z,19.9
2022-11-19T17:32:39.411Z,19.9
2022-11-19T17:37:46.154Z,19.9
2022-11-19T17:42:52.929Z,19.9
2022-11-19T17:47:59.637Z,19.8
2022-11-19T17:53:06.347Z,19.8
2022-11-19T17:58:13.113Z,19.8
2022-11-19T18:03:19.809Z,19.8
2022-11-19T18:08:26.852Z,19.8
2022-11-19T18:13:33.318Z,19.8
2022-11-19T18:18:40.026Z,19.8
2022-11-19T18:23:46.739Z,19.8
2022-11-19T18:28:53.498Z,19.9
2022-11-19T18:34:00.190Z,19.9
2022-11-19T18:39:06.944Z,19.9
2022-11-19T18:44:13.716Z,19.9
2022-11-19T18:49:20.756Z,19.9
2022-11-19T18:54:27.125Z,19.9
2022-11-19T18:59:33.881Z,19.8
2022-11-19T19:04:40.602Z,19.8
2022-11-19T19:09:47.330Z,19.8
2022-11-19T19:14:54.100Z,19.8
2022-11-19T19:20:00.799Z,19.8
2022-11-19T19:25:07.548Z,19.8
2022-11-19T19:30:14.305Z,19.8
2022-11-19T19:35:20.990Z,19.8
2022-11-19T19:40:27.746Z,19.8
2022-11-19T19:45:34.500Z,19.9
2022-11-19T19:50:41.194Z,19.9
2022-11-19T19:55:47.940Z,19.9
2022-11-19T20:00:54.686Z,19.9
2022-11-19T20:06:01.391Z,19.9
2022-11-19T20:11:08.135Z,19.8
2022-11-19T20:16:18.269Z,19.8
2022-11-19T20:21:22.828Z,19.7
2022-11-19T20:26:30.780Z,19.7
2022-11-19T20:31:37.555Z,19.7
2022-11-19T20:36:44.349Z,19.7
2022-11-19T20:41:50.992Z,19.7
2022-11-19T20:46:57.769Z,19.7
2022-11-19T20:52:04.470Z,19.8
2022-11-19T20:57:11.191Z,19.8
2022-11-19T21:02:18.069Z,19.8
2022-11-19T21:07:24.734Z,19.8
2022-11-19T21:12:31.402Z,19.8
2022-11-19T21:17:38.319Z,19.8
2022-11-19T21:22:44.884Z,19.8
2022-11-19T21:27:51.615Z,19.8
2022-11-19T21:32:58.341Z,19.8
2022-11-19T21:38:09.441Z,19.7
2022-11-19T21:43:11.794Z,19.7
2022-11-19T21:48:18.534Z,19.7
2022-11-19T21:53:25.240Z,19.7
2022-11-19T21:58:31.969Z,19.7
2022-11-19T22:03:38.722Z,19.7
2022-11-19T22:08:45.463Z,19.7
2022-11-19T22:13:52.183Z,19.7
2022-11-19T22:18:58.938Z,19.7
2022-11-19T22:24:05.652Z,19.7
2022-11-19T22:29:12.371Z,19.7
2022-11-19T22:34:19.136Z,19.8
2022-11-19T22:39:25.853Z,19.8
2022-11-19T22:44:32.567Z,19.8
2022-11-19T22:49:39.314Z,19.8
2022-11-19T22:54:46.066Z,19.7
2022-11-19T22:59:52.780Z,19.7
2022-11-19T23:04:59.524Z,19.6
2022-11-19T23:10:06.238Z,19.6
2022-11-19T23:15:12.961Z,19.6
2022-11-19T23:20:19.723Z,19.6
2022-11-19T23:25:26.432Z,19.6
2022-11-19T23:30:33.160Z,19.6
2022-11-19T23:35:39.933Z,19.7
2022-11-19T23:40:46.619Z,19.7
2022-11-19T23:45:53.368Z,19.7
2022-11-19T23:51:00.129Z,19.7
2022-11-19T23:56:06.844Z,19.7
